createdAt,value
2018-03-25T04:49:57.484Z,10.67
2018-03-25T05:00:32.974Z,11.17
2018-03-25T05:05:35.598Z,11.33
2018-03-25T05:10:38.217Z,14.80
2018-03-25T05:15:41.654Z,12.83
2018-03-25T05:20:44.301Z,14.93
2018-03-25T05:25:46.949Z,14.10
2018-03-25T05:30:49.568Z,15.27
2018-03-25T05:35:52.193Z,14.23
2018-03-25T05:40:54.825Z,14.50
2018-03-25T05:45:57.448Z,13.73
2018-03-25T05:51:00.905Z,15.03
2018-03-25T05:56:04.369Z,14.73
2018-03-25T06:01:06.985Z,15.30
2018-03-25T06:06:09.613Z,16.03
2018-03-25T06:11:12.236Z,16.07
2018-03-25T06:16:15.686Z,14.57
2018-03-25T06:21:18.310Z,17.27
2018-03-25T06:26:20.939Z,16.67
2018-03-25T06:31:23.561Z,18.07
2018-03-25T06:36:26.181Z,16.93
2018-03-25T06:41:29.624Z,18.13
2018-03-25T06:46:32.244Z,17.73
2018-03-25T06:51:34.920Z,18.40
2018-03-25T06:56:37.568Z,20.27
2018-03-25T07:01:40.180Z,21.17
2018-03-25T07:06:42.797Z,20.33
2018-03-25T07:11:45.409Z,19.93
2018-03-25T07:16:48.157Z,19.93
2018-03-25T07:21:50.774Z,20.57
2018-03-25T07:26:53.456Z,20.53
2018-03-25T07:31:56.069Z,20.03
2018-03-25T07:36:58.680Z,19.63
2018-03-25T07:42:02.062Z,21.30
2018-03-25T07:47:04.674Z,22.20
2018-03-25T07:52:07.304Z,21.77
2018-03-25T07:57:09.921Z,22.83
2018-03-25T08:02:12.600Z,22.70
2018-03-25T08:07:15.427Z,22.97
2018-03-25T08:12:18.100Z,22.53
2018-03-25T08:17:20.743Z,22.80
2018-03-25T08:22:23.385Z,21.43
2018-03-25T08:27:26.045Z,22.27
2018-03-25T08:32:28.667Z,22.07
2018-03-25T08:37:31.281Z,22.50
2018-03-25T08:42:33.889Z,21.53
2018-03-25T08:47:36.500Z,21.57
2018-03-25T08:52:39.116Z,20.93
2018-03-25T08:57:41.765Z,19.83
2018-03-25T09:02:44.465Z,20.13
2018-03-25T09:07:47.088Z,21.60
2018-03-25T09:12:49.709Z,20.23
2018-03-25T09:17:52.333Z,19.83
2018-03-25T09:22:55.739Z,19.93
2018-03-25T09:27:58.421Z,18.87
2018-03-25T09:33:01.894Z,19.20
2018-03-25T09:38:04.512Z,20.27
2018-03-25T09:43:07.134Z,20.90
2018-03-25T09:48:09.762Z,20.37
2018-03-25T09:53:12.385Z,18.77
2018-03-25T09:58:15.015Z,18.53
2018-03-25T10:03:23.406Z,18.53
2018-03-25T10:08:26.066Z,18.00
2018-03-25T10:13:28.852Z,17.70
2018-03-25T10:18:31.493Z,19.13
2018-03-25T10:23:34.126Z,18.07
2018-03-25T10:28:36.762Z,17.63
2018-03-25T10:33:40.156Z,17.77
2018-03-25T10:38:42.784Z,17.53
2018-03-25T10:43:46.180Z,16.57
2018-03-25T10:48:48.815Z,17.53
2018-03-25T10:53:51.446Z,17.80
2018-03-25T10:58:54.091Z,19.33
2018-03-25T11:03:56.722Z,18.00
2018-03-25T11:14:00.843Z,20.87
2018-03-25T11:19:03.475Z,19.90
2018-03-25T11:24:06.106Z,21.53
2018-03-25T11:29:08.741Z,20.03
2018-03-25T11:34:12.144Z,21.57
2018-03-25T11:39:14.781Z,22.40
2018-03-25T11:44:17.400Z,21.77
2018-03-25T11:49:20.789Z,22.00
2018-03-25T11:54:23.412Z,23.30
2018-03-25T11:59:27.364Z,20.90
2018-03-25T12:04:29.992Z,23.23
2018-03-25T12:09:32.625Z,24.00
2018-03-25T12:14:35.263Z,23.03
2018-03-25T12:19:37.931Z,24.90
2018-03-25T12:24:40.561Z,24.87
2018-03-25T12:29:43.190Z,24.50
2018-03-25T12:34:46.742Z,25.03
2018-03-25T12:39:50.154Z,25.63
2018-03-25T12:44:52.789Z,25.37
2018-03-25T12:49:55.431Z,26.03
2018-03-25T12:54:58.097Z,27.00
2018-03-25T13:00:00.734Z,25.10
2018-03-25T13:05:03.401Z,24.43
2018-03-25T13:10:06.038Z,22.70
2018-03-25T13:15:08.669Z,24.30
2018-03-25T13:20:12.137Z,24.27
2018-03-25T13:25:14.789Z,24.00
2018-03-25T13:30:17.417Z,24.40
2018-03-25T13:35:20.076Z,23.30
2018-03-25T13:40:22.701Z,23.83
2018-03-25T13:45:26.114Z,25.03
2018-03-25T13:50:28.743Z,25.30
2018-03-25T13:55:31.388Z,24.00
2018-03-25T14:00:34.027Z,24.40
2018-03-25T14:05:36.668Z,24.20
2018-03-25T14:10:39.294Z,24.30
2018-03-25T14:15:41.955Z,22.93
2018-03-25T14:20:44.583Z,23.67
2018-03-25T14:25:47.998Z,24.37
2018-03-25T14:30:50.645Z,23.43
2018-03-25T14:35:53.277Z,24.43
2018-03-25T14:40:55.905Z,24.20
2018-03-25T14:45:58.551Z,22.97
2018-03-25T14:51:01.198Z,24.17
2018-03-25T14:56:03.834Z,24.27
2018-03-25T15:01:06.476Z,25.53
2018-03-25T15:06:09.869Z,27.03
2018-03-25T15:11:12.514Z,24.47
2018-03-25T15:16:15.176Z,24.37
2018-03-25T15:21:17.819Z,25.37
2018-03-25T15:26:20.457Z,25.53
2018-03-25T15:31:23.091Z,26.83
2018-03-25T15:36:25.748Z,23.70
2018-03-25T15:41:28.381Z,23.83
2018-03-25T15:46:31.796Z,25.60
2018-03-25T15:51:34.490Z,24.37
2018-03-25T15:56:37.962Z,24.90
2018-03-25T16:01:40.569Z,24.87
2018-03-25T16:06:43.224Z,24.57
2018-03-25T16:11:45.862Z,23.57
2018-03-25T16:16:48.514Z,24.23
2018-03-25T16:21:51.143Z,24.27
2018-03-25T16:26:53.789Z,24.70
2018-03-25T16:31:57.335Z,23.73
2018-03-25T16:36:59.962Z,23.33
2018-03-25T16:42:03.374Z,23.60
2018-03-25T16:47:06.071Z,25.00
2018-03-25T16:52:09.494Z,24.20
2018-03-25T16:57:12.159Z,23.57
2018-03-25T17:02:14.831Z,23.40
2018-03-25T17:07:17.461Z,23.70
2018-03-25T17:12:20.110Z,22.03
2018-03-25T17:17:22.757Z,21.53
2018-03-25T17:22:25.399Z,22.17
2018-03-25T17:27:29.041Z,21.33
2018-03-25T17:32:32.794Z,19.87
2018-03-25T18:32:40.955Z,20.03
2018-03-25T18:37:43.616Z,22.10
2018-03-25T18:42:46.361Z,22.57
2018-03-25T18:47:48.955Z,23.03
2018-03-25T18:52:52.577Z,23.23
2018-03-25T18:57:56.010Z,23.73
2018-03-25T19:02:58.674Z,22.37
2018-03-25T19:08:02.298Z,22.63
2018-03-25T19:13:09.247Z,21.33
2018-03-25T19:18:12.630Z,19.60
2018-03-25T19:23:15.251Z,18.70
2018-03-25T19:28:19.867Z,18.20
2018-03-25T19:33:23.265Z,17.00
2018-03-25T19:38:25.890Z,16.97
2018-03-25T19:43:28.589Z,14.60
2018-03-25T19:48:31.213Z,15.53
2018-03-25T19:53:33.861Z,16.17
2018-03-25T19:58:36.485Z,16.63
2018-03-25T20:03:42.620Z,16.33
2018-03-25T20:08:46.225Z,15.87
2018-03-25T20:13:48.823Z,16.10
2018-03-25T20:18:51.441Z,16.53
2018-03-25T20:23:54.061Z,16.57
2018-03-25T20:29:10.138Z,15.47
2018-03-25T20:34:12.769Z,16.63
2018-03-25T20:39:15.398Z,16.40
2018-03-25T20:44:18.031Z,16.13
2018-03-25T20:49:20.653Z,15.97
2018-03-25T20:54:24.046Z,14.60
2018-03-25T20:59:26.666Z,14.63
2018-03-25T21:04:30.079Z,16.13
2018-03-25T21:09:32.697Z,15.63
2018-03-25T21:14:35.318Z,14.70
2018-03-25T21:19:38.711Z,15.27
2018-03-25T21:24:41.341Z,15.23
2018-03-25T21:29:44.007Z,14.60
2018-03-25T21:34:46.630Z,14.40
2018-03-25T21:39:56.006Z,15.30
2018-03-25T21:44:58.682Z,14.33
2018-03-25T21:50:02.073Z,15.20
2018-03-25T21:55:04.698Z,14.03
2018-03-25T22:00:08.081Z,13.43
2018-03-25T22:05:10.702Z,15.07
2018-03-25T22:10:14.504Z,15.57
2018-03-25T22:15:17.122Z,15.13
2018-03-25T22:20:20.533Z,13.97
2018-03-25T22:25:23.153Z,14.83
2018-03-25T22:30:25.771Z,14.07
2018-03-25T22:35:28.394Z,13.60
2018-03-25T22:40:31.014Z,15.17
2018-03-25T22:45:33.634Z,14.43
2018-03-25T22:50:36.259Z,14.07
2018-03-25T22:55:38.885Z,14.63
2018-03-25T23:00:41.510Z,14.07
2018-03-25T23:05:44.465Z,15.27
2018-03-25T23:10:47.095Z,14.73
2018-03-25T23:15:49.728Z,15.07
2018-03-25T23:20:52.358Z,13.90
2018-03-25T23:25:55.745Z,14.97
2018-03-25T23:30:58.369Z,12.83
2018-03-25T23:36:01.761Z,13.47
2018-03-25T23:41:04.376Z,14.50
2018-03-25T23:46:07.766Z,14.47
2018-03-25T23:51:10.394Z,14.40
2018-03-25T23:56:13.786Z,14.67
